createdAt,value
2022-07-26T00:02:18.615Z,60.57
2022-07-26T00:04:46.914Z,61.18
2022-07-26T00:07:25.284Z,61.73
2022-07-26T00:10:13.173Z,62.49
2022-07-26T00:12:55.040Z,62.98
2022-07-26T00:15:27.917Z,64.22
2022-07-26T00:18:15.539Z,64.80
2022-07-26T00:21:07.733Z,64.52
2022-07-26T00:23:47.200Z,65.35
2022-07-26T00:26:38.729Z,65.90
2022-07-26T00:29:18.112Z,66.35
2022-07-26T00:31:50.117Z,65.92
2022-07-26T00:34:27.732Z,66.97
2022-07-26T00:37:20.652Z,67.86
2022-07-26T00:40:04.803Z,68.73
2022-07-26T00:42:47.105Z,69.84
2022-07-26T00:45:20.419Z,70.35
2022-07-26T00:47:53.143Z,70.54
2022-07-26T00:50:36.986Z,70.77
2022-07-26T00:53:09.131Z,70.67
2022-07-26T00:55:55.875Z,70.05
2022-07-26T00:58:39.300Z,70.56
2022-07-26T01:01:17.851Z,71.04
2022-07-26T01:03:54.614Z,71.64
2022-07-26T01:06:27.473Z,71.73
2022-07-26T01:09:06.260Z,71.93
2022-07-26T01:11:54.436Z,72.77
2022-07-26T01:14:33.760Z,74.14
2022-07-26T01:17:23.804Z,73.81
2022-07-26T01:20:08.123Z,74.45
2022-07-26T01:22:52.678Z,74.88
2022-07-26T01:25:43.176Z,74.88
2022-07-26T01:28:19.786Z,74.11
2022-07-26T01:31:05.051Z,74.21
2022-07-26T01:33:41.932Z,75.13
2022-07-26T01:36:27.878Z,75.36
2022-07-26T01:39:09.405Z,76.12
2022-07-26T01:41:41.941Z,76.86
2022-07-26T01:44:26.087Z,77.22
2022-07-26T01:47:17.240Z,77.78
2022-07-26T01:49:55.200Z,79.15
2022-07-26T01:52:44.303Z,79.66
2022-07-26T01:55:24.437Z,79.90
2022-07-26T01:58:10.386Z,79.56
2022-07-26T02:00:54.056Z,80.69
2022-07-26T02:03:35.887Z,79.08
2022-07-26T02:06:10.410Z,78.71
2022-07-26T02:08:51.841Z,78.19
2022-07-26T02:11:53.879Z,76.99
2022-07-26T02:14:29.654Z,77.57
2022-07-26T02:17:14.675Z,77.42
2022-07-26T02:19:56.722Z,77.59
2022-07-26T02:22:43.365Z,77.30
2022-07-26T02:25:17.960Z,77.50
2022-07-26T02:28:04.858Z,77.56
2022-07-26T02:30:45.720Z,77.95
2022-07-26T02:33:26.687Z,77.41
2022-07-26T02:36:05.895Z,77.13
2022-07-26T02:38:44.772Z,78.35
2022-07-26T02:41:36.109Z,79.81
2022-07-26T02:44:21.250Z,80.00
2022-07-26T02:47:07.628Z,80.55
2022-07-26T02:49:51.723Z,80.76
2022-07-26T02:52:40.737Z,80.71
2022-07-26T02:55:20.914Z,80.56
2022-07-26T02:58:05.610Z,80.12
2022-07-26T03:00:49.428Z,80.32
2022-07-26T03:03:36.524Z,79.38
2022-07-26T03:06:17.415Z,78.67
2022-07-26T03:08:48.255Z,78.55
2022-07-26T03:11:26.495Z,78.03
2022-07-26T03:14:12.583Z,78.12
2022-07-26T03:17:13.805Z,77.89
2022-07-26T03:19:57.815Z,78.12
2022-07-26T03:22:45.644Z,78.32
2022-07-26T03:25:26.853Z,78.15
2022-07-26T03:28:07.850Z,78.77
2022-07-26T03:30:54.769Z,79.00
2022-07-26T03:33:41.630Z,79.52
2022-07-26T03:36:25.962Z,79.21
2022-07-26T03:39:09.737Z,78.49
2022-07-26T03:41:55.771Z,79.27
2022-07-26T03:44:50.899Z,78.77
2022-07-26T03:47:27.023Z,79.04
2022-07-26T03:49:57.029Z,79.03
2022-07-26T03:52:39.862Z,79.34
2022-07-26T03:55:45.074Z,81.31
2022-07-26T03:58:34.162Z,80.37
2022-07-26T04:01:29.272Z,80.71
2022-07-26T04:04:25.288Z,81.05
2022-07-26T04:07:03.152Z,80.96
2022-07-26T04:09:55.078Z,81.21
2022-07-26T04:12:41.705Z,81.83
2022-07-26T04:15:27.618Z,82.72
2022-07-26T04:18:17.425Z,83.65
2022-07-26T04:21:04.736Z,84.90
2022-07-26T04:23:51.133Z,84.98
2022-07-26T04:26:43.839Z,84.46
2022-07-26T04:29:39.034Z,84.95
2022-07-26T04:32:25.760Z,85.08
2022-07-26T04:35:12.811Z,85.26
2022-07-26T04:37:51.738Z,85.16
2022-07-26T04:40:44.448Z,83.60
2022-07-26T04:43:35.791Z,82.45
2022-07-26T04:46:17.640Z,79.09
2022-07-26T04:48:54.761Z,77.60
2022-07-26T04:51:47.123Z,74.95
2022-07-26T04:54:23.189Z,73.29
2022-07-26T04:57:07.001Z,72.42
2022-07-26T05:00:16.815Z,72.17
2022-07-26T05:02:58.741Z,71.92
2022-07-26T05:05:43.861Z,72.84
2022-07-26T05:08:21.880Z,73.18
2022-07-26T05:11:02.037Z,72.73
2022-07-26T05:13:37.440Z,71.28
2022-07-26T05:16:11.749Z,68.94
2022-07-26T05:18:49.998Z,70.31
2022-07-26T05:21:33.746Z,67.26
2022-07-26T05:24:15.932Z,68.99
2022-07-26T05:27:04.988Z,64.75
2022-07-26T05:29:46.644Z,61.26
2022-07-26T05:32:32.827Z,60.97
2022-07-26T05:35:19.606Z,58.98
2022-07-26T05:38:08.630Z,57.64
2022-07-26T05:40:50.812Z,56.41
2022-07-26T05:43:41.126Z,54.57
2022-07-26T05:46:24.666Z,50.67
2022-07-26T05:49:15.333Z,49.54
2022-07-26T05:52:06.528Z,48.95
2022-07-26T05:54:40.007Z,47.58
2022-07-26T05:57:30.470Z,47.53
2022-07-26T06:00:17.945Z,47.42
2022-07-26T06:02:59.552Z,45.28
2022-07-26T06:05:40.584Z,45.28
2022-07-26T06:08:24.946Z,43.24
2022-07-26T06:11:01.976Z,43.27
2022-07-26T06:13:40.235Z,42.10
2022-07-26T06:16:22.959Z,41.13
2022-07-26T06:19:16.367Z,41.30
2022-07-26T06:21:57.249Z,39.43
2022-07-26T06:24:45.755Z,39.71
2022-07-26T06:27:33.726Z,39.22
2022-07-26T06:30:19.773Z,38.77
2022-07-26T06:32:49.388Z,38.95
2022-07-26T06:35:42.006Z,38.53
2022-07-26T06:38:34.556Z,38.00
2022-07-26T06:41:18.260Z,39.44
2022-07-26T06:44:03.583Z,37.79
2022-07-26T06:46:44.095Z,39.11
2022-07-26T06:49:32.921Z,39.57
2022-07-26T06:52:06.828Z,39.45
2022-07-26T06:54:47.631Z,39.37
2022-07-26T06:57:30.168Z,38.91
2022-07-26T07:00:17.907Z,39.93
2022-07-26T07:02:58.853Z,39.28
2022-07-26T07:05:45.371Z,39.94
2022-07-26T07:08:27.676Z,40.83
2022-07-26T07:11:01.920Z,39.75
2022-07-26T07:13:42.664Z,40.24
2022-07-26T07:16:21.065Z,39.69
2022-07-26T07:19:01.116Z,40.07
2022-07-26T07:21:39.334Z,39.76
2022-07-26T07:24:23.837Z,40.19
2022-07-26T07:27:07.829Z,39.79
2022-07-26T07:29:53.967Z,40.30
2022-07-26T07:32:31.501Z,39.73
2022-07-26T07:35:14.896Z,40.68
2022-07-26T07:38:04.774Z,39.87
2022-07-26T07:40:43.340Z,40.67
2022-07-26T07:43:26.152Z,41.04
2022-07-26T07:46:05.133Z,41.31
2022-07-26T07:48:47.001Z,41.34
2022-07-26T07:51:37.732Z,40.06
2022-07-26T07:54:19.917Z,40.38
2022-07-26T07:57:20.888Z,40.12
2022-07-26T08:00:05.413Z,41.50
2022-07-26T08:02:58.037Z,41.40
2022-07-26T08:05:40.312Z,41.19
2022-07-26T08:08:13.157Z,42.38
2022-07-26T08:11:00.768Z,42.10
2022-07-26T08:13:47.586Z,42.73
2022-07-26T08:16:36.247Z,41.38
2022-07-26T08:19:25.053Z,40.97
2022-07-26T08:22:15.278Z,41.96
2022-07-26T08:25:00.914Z,42.70
2022-07-26T08:27:40.638Z,43.75
2022-07-26T08:30:14.098Z,44.23
2022-07-26T08:32:59.896Z,45.06
2022-07-26T08:35:36.894Z,45.06
2022-07-26T08:38:20.889Z,45.13
2022-07-26T08:41:06.099Z,45.89
2022-07-26T08:43:52.314Z,46.62
2022-07-26T08:46:40.138Z,46.65
2022-07-26T08:49:22.036Z,46.88
2022-07-26T08:52:09.589Z,46.55
2022-07-26T08:54:53.865Z,46.76
2022-07-26T08:57:30.015Z,47.35
2022-07-26T09:00:20.791Z,48.63
2022-07-26T09:03:12.595Z,48.33
2022-07-26T09:05:56.432Z,46.90
2022-07-26T09:08:37.876Z,47.32
2022-07-26T09:11:33.197Z,48.53
2022-07-26T09:14:36.913Z,48.66
2022-07-26T09:17:14.830Z,48.37
2022-07-26T09:20:12.616Z,48.88
2022-07-26T09:23:14.119Z,48.18
2022-07-26T09:25:52.041Z,48.18
2022-07-26T09:28:44.934Z,47.78
2022-07-26T09:31:23.969Z,46.19
2022-07-26T09:34:08.317Z,45.55
2022-07-26T09:36:57.394Z,46.98
2022-07-26T09:39:55.456Z,44.64
2022-07-26T09:43:03.082Z,44.90
2022-07-26T09:45:41.757Z,45.64
2022-07-26T09:48:59.575Z,45.04
2022-07-26T09:52:19.362Z,45.57
2022-07-26T09:55:09.933Z,45.52
2022-07-26T09:57:53.592Z,46.49
2022-07-26T10:00:35.818Z,47.57
2022-07-26T10:03:13.597Z,48.00
2022-07-26T10:05:56.920Z,54.09
2022-07-26T10:08:32.993Z,59.05
2022-07-26T10:11:14.435Z,58.64
2022-07-26T10:13:55.111Z,60.46
2022-07-26T10:16:32.569Z,64.35
2022-07-26T10:19:08.270Z,70.15
2022-07-26T10:21:35.436Z,74.25
2022-07-26T10:24:04.386Z,76.35
2022-07-26T10:26:31.473Z,79.80
2022-07-26T10:29:19.240Z,85.24
2022-07-26T10:32:08.974Z,93.92
2022-07-26T10:34:43.571Z,99.21
2022-07-26T10:37:21.914Z,100.00
2022-07-26T10:40:22.877Z,100.00
2022-07-26T10:43:39.052Z,100.00
2022-07-26T10:46:20.666Z,100.00
2022-07-26T10:49:11.775Z,100.00
2022-07-26T10:51:46.247Z,100.00
2022-07-26T10:54:24.156Z,100.00
2022-07-26T10:57:13.555Z,100.00
2022-07-26T10:59:55.781Z,100.00
2022-07-26T11:02:26.553Z,100.00
2022-07-26T11:05:19.103Z,100.00
2022-07-26T11:08:10.655Z,100.00
2022-07-26T11:11:05.018Z,100.00
2022-07-26T11:13:37.831Z,100.00
2022-07-26T11:16:11.460Z,100.00
2022-07-26T11:18:46.669Z,100.00
2022-07-26T11:21:29.626Z,100.00
2022-07-26T11:24:08.519Z,100.00
2022-07-26T11:27:05.261Z,100.00
2022-07-26T11:29:51.687Z,100.00
2022-07-26T11:32:54.409Z,100.00
2022-07-26T11:35:32.958Z,100.00
2022-07-26T11:38:12.571Z,100.00
2022-07-26T11:41:05.666Z,100.00
2022-07-26T11:43:50.098Z,100.00
2022-07-26T11:46:40.207Z,100.00
2022-07-26T11:52:39.884Z,100.00
2022-07-26T11:55:15.898Z,100.00
2022-07-26T11:57:53.894Z,100.00
2022-07-26T12:00:27.247Z,100.00
2022-07-26T12:03:03.039Z,100.00
2022-07-26T12:05:34.335Z,100.00
2022-07-26T12:08:08.372Z,100.00
2022-07-26T12:10:43.841Z,100.00
2022-07-26T12:13:19.192Z,100.00
2022-07-26T12:15:52.100Z,100.00
2022-07-26T12:18:36.853Z,100.00
2022-07-26T12:21:18.020Z,100.00
2022-07-26T12:23:58.575Z,100.00
2022-07-26T12:26:42.713Z,100.00
2022-07-26T12:29:32.843Z,100.00
2022-07-26T12:32:24.549Z,100.00
2022-07-26T12:35:28.193Z,100.00
2022-07-26T12:38:10.886Z,100.00
2022-07-26T12:40:52.976Z,100.00
2022-07-26T12:43:25.555Z,100.00
2022-07-26T12:46:06.124Z,100.00
2022-07-26T12:48:47.097Z,100.00
2022-07-26T12:51:20.952Z,100.00
2022-07-26T12:53:48.411Z,100.00
2022-07-26T12:56:25.102Z,100.00
2022-07-26T12:59:17.972Z,100.00
2022-07-26T13:01:45.923Z,100.00
2022-07-26T13:04:23.654Z,100.00
2022-07-26T13:07:03.541Z,100.00
2022-07-26T13:09:44.945Z,100.00
2022-07-26T13:12:38.276Z,100.00
2022-07-26T13:15:22.467Z,100.00
2022-07-26T13:17:55.541Z,100.00
2022-07-26T13:20:30.901Z,100.00
2022-07-26T13:23:03.323Z,100.00
2022-07-26T13:25:40.497Z,100.00
2022-07-26T13:28:13.442Z,91.31
2022-07-26T13:30:56.338Z,91.25
2022-07-26T13:33:31.735Z,89.84
2022-07-26T13:36:18.282Z,90.29
2022-07-26T13:38:48.404Z,93.41
2022-07-26T13:41:38.347Z,92.61
2022-07-26T13:44:08.541Z,93.58
2022-07-26T13:46:48.755Z,92.98
2022-07-26T13:49:21.287Z,91.33
2022-07-26T13:51:59.972Z,91.86
2022-07-26T13:54:33.161Z,90.92
2022-07-26T13:57:07.826Z,92.75
2022-07-26T13:59:53.772Z,92.98
2022-07-26T14:02:34.833Z,91.26
2022-07-26T14:05:21.788Z,90.95
2022-07-26T14:07:55.288Z,90.17
2022-07-26T14:10:29.590Z,90.74
2022-07-26T14:13:07.808Z,91.14
2022-07-26T14:15:59.358Z,89.83
2022-07-26T14:18:34.659Z,89.68
2022-07-26T14:21:10.678Z,89.36
2022-07-26T14:23:58.709Z,86.59
2022-07-26T14:26:38.765Z,85.11
2022-07-26T14:29:17.938Z,82.49
2022-07-26T14:31:54.167Z,79.38
2022-07-26T14:34:34.259Z,78.93
2022-07-26T14:37:40.718Z,79.71
2022-07-26T14:40:08.786Z,79.34
2022-07-26T14:42:51.419Z,78.41
2022-07-26T14:45:44.143Z,77.72
2022-07-26T14:48:51.743Z,80.45
2022-07-26T14:51:29.785Z,79.23
2022-07-26T14:54:13.980Z,78.92
2022-07-26T14:56:52.869Z,78.30
2022-07-26T14:59:44.130Z,79.72
2022-07-26T15:02:27.102Z,80.02
2022-07-26T15:05:00.297Z,80.78
2022-07-26T15:07:32.736Z,80.04
2022-07-26T15:10:08.918Z,82.91
2022-07-26T15:12:37.916Z,82.01
2022-07-26T15:15:21.820Z,83.23
2022-07-26T15:18:09.710Z,83.13
2022-07-26T15:20:56.191Z,82.84
2022-07-26T15:23:36.405Z,83.21
2022-07-26T15:26:18.076Z,83.10
2022-07-26T15:28:59.357Z,83.12
2022-07-26T15:31:37.315Z,84.24
2022-07-26T15:34:19.716Z,85.61
2022-07-26T15:36:58.134Z,83.42
2022-07-26T15:39:30.569Z,83.93
2022-07-26T15:42:15.227Z,83.99
2022-07-26T15:45:00.611Z,83.29
2022-07-26T15:47:57.335Z,83.28
2022-07-26T15:50:53.680Z,83.07
2022-07-26T15:53:34.274Z,82.34
2022-07-26T15:56:04.902Z,81.32
2022-07-26T15:58:48.803Z,82.41
2022-07-26T16:01:19.114Z,79.61
2022-07-26T16:03:55.428Z,80.27
2022-07-26T16:06:25.903Z,79.08
2022-07-26T16:09:17.740Z,76.60
2022-07-26T16:12:06.139Z,77.19
2022-07-26T16:14:44.540Z,77.41
2022-07-26T16:17:19.877Z,77.40
2022-07-26T16:19:54.924Z,77.71
2022-07-26T16:22:33.608Z,76.52
2022-07-26T16:25:08.942Z,76.46
2022-07-26T16:27:45.012Z,77.15
2022-07-26T16:30:34.065Z,78.08
2022-07-26T16:33:26.019Z,76.65
2022-07-26T16:35:55.924Z,77.24
2022-07-26T16:38:40.891Z,77.24
2022-07-26T16:41:17.587Z,76.23
2022-07-26T16:43:55.625Z,76.88
2022-07-26T16:46:23.204Z,76.61
2022-07-26T16:49:01.271Z,77.04
2022-07-26T16:51:35.875Z,76.42
2022-07-26T16:54:14.386Z,75.04
2022-07-26T16:56:41.371Z,74.79
2022-07-26T16:59:20.093Z,74.52
2022-07-26T17:02:01.665Z,74.33
2022-07-26T17:04:34.911Z,74.14
2022-07-26T17:07:25.035Z,74.06
2022-07-26T17:09:57.769Z,74.15
2022-07-26T17:12:25.965Z,74.25
2022-07-26T17:15:01.193Z,73.62
2022-07-26T17:17:48.698Z,74.04
2022-07-26T17:20:37.129Z,75.02
2022-07-26T17:23:12.350Z,74.90
2022-07-26T17:25:53.853Z,74.32
2022-07-26T17:28:51.885Z,74.93
2022-07-26T17:31:36.229Z,75.49
2022-07-26T17:34:18.870Z,75.74
2022-07-26T17:37:03.137Z,75.36
2022-07-26T17:39:58.747Z,76.02
2022-07-26T17:42:28.160Z,76.18
2022-07-26T17:44:59.665Z,75.75
2022-07-26T17:47:35.920Z,75.94
2022-07-26T17:50:36.026Z,75.89
2022-07-26T17:53:21.205Z,76.66
2022-07-26T17:56:18.444Z,76.91
2022-07-26T17:58:58.912Z,77.04
2022-07-26T18:01:31.696Z,78.04
2022-07-26T18:04:07.978Z,77.30
2022-07-26T18:06:56.977Z,77.65
2022-07-26T18:09:42.562Z,78.67
2022-07-26T18:12:20.274Z,78.60
2022-07-26T18:15:27.563Z,79.50
2022-07-26T18:18:24.118Z,80.55
2022-07-26T18:20:53.473Z,81.00
2022-07-26T18:23:32.142Z,82.15
2022-07-26T18:26:13.038Z,82.36
2022-07-26T18:28:49.704Z,83.50
2022-07-26T18:31:42.853Z,84.15
2022-07-26T18:34:18.985Z,84.54
2022-07-26T18:36:55.142Z,85.50
2022-07-26T18:39:33.385Z,85.98
2022-07-26T18:42:06.353Z,86.52
2022-07-26T18:44:43.938Z,87.62
2022-07-26T18:50:17.434Z,88.78
2022-07-26T18:52:45.128Z,88.69
2022-07-26T18:55:26.605Z,90.84
2022-07-26T18:58:03.345Z,90.60
2022-07-26T19:00:49.864Z,90.74
2022-07-26T19:03:41.604Z,91.34
2022-07-26T19:06:16.966Z,91.18
2022-07-26T19:08:54.817Z,90.96
2022-07-26T19:11:39.043Z,90.98
2022-07-26T19:14:14.628Z,91.64
2022-07-26T19:16:50.281Z,91.58
2022-07-26T19:19:31.335Z,92.51
2022-07-26T19:22:14.831Z,92.89
2022-07-26T19:25:03.913Z,93.37
2022-07-26T19:27:42.634Z,94.07
2022-07-26T19:30:26.365Z,93.98
2022-07-26T19:33:17.031Z,94.64
2022-07-26T19:35:52.447Z,94.17
2022-07-26T19:38:41.646Z,95.33
2022-07-26T19:41:23.414Z,94.97
2022-07-26T19:44:09.542Z,94.93
2022-07-26T19:46:57.526Z,95.66
2022-07-26T19:49:30.324Z,96.57
2022-07-26T19:52:00.318Z,95.99
2022-07-26T19:54:36.256Z,95.30
2022-07-26T19:57:16.934Z,95.74
2022-07-26T20:00:02.553Z,96.23
2022-07-26T20:02:58.789Z,96.00
2022-07-26T20:05:43.069Z,96.15
2022-07-26T20:08:27.891Z,97.18
2022-07-26T20:11:22.077Z,97.46
2022-07-26T20:13:57.468Z,97.35
2022-07-26T20:16:27.515Z,97.23
2022-07-26T20:18:54.712Z,97.88
2022-07-26T20:21:27.979Z,97.30
2022-07-26T20:24:03.891Z,97.10
2022-07-26T20:26:39.947Z,97.24
2022-07-26T20:29:25.959Z,98.29
2022-07-26T20:32:09.365Z,97.37
2022-07-26T20:34:41.731Z,96.45
2022-07-26T20:37:32.899Z,97.02
2022-07-26T20:40:12.957Z,96.26
2022-07-26T20:42:56.883Z,97.05
2022-07-26T20:45:30.115Z,96.86
2022-07-26T20:48:12.057Z,97.61
2022-07-26T20:51:04.093Z,97.28
2022-07-26T20:53:39.939Z,98.05
2022-07-26T20:56:21.821Z,98.55
2022-07-26T20:59:12.223Z,99.31
2022-07-26T21:01:39.604Z,99.54
2022-07-26T21:04:14.069Z,99.06
2022-07-26T21:06:45.184Z,99.25
2022-07-26T21:09:27.217Z,97.86
2022-07-26T21:12:11.052Z,98.41
2022-07-26T21:14:57.740Z,98.74
2022-07-26T21:17:46.617Z,98.43
2022-07-26T21:20:27.092Z,98.32
2022-07-26T21:23:17.663Z,99.16
2022-07-26T21:25:57.913Z,99.51
2022-07-26T21:28:40.547Z,99.52
2022-07-26T21:31:24.076Z,99.50
2022-07-26T21:34:05.300Z,100.00
2022-07-26T21:36:46.557Z,100.00
2022-07-26T21:39:41.037Z,100.00
2022-07-26T21:42:26.827Z,100.00
2022-07-26T21:45:07.889Z,99.86
2022-07-26T21:47:46.904Z,99.38
2022-07-26T21:50:25.431Z,99.66
2022-07-26T21:52:55.219Z,99.71
2022-07-26T21:55:34.938Z,100.00
2022-07-26T21:58:12.917Z,99.58
2022-07-26T22:00:56.349Z,99.18
2022-07-26T22:03:40.318Z,98.93
2022-07-26T22:06:21.977Z,98.71
2022-07-26T22:08:54.547Z,98.20
2022-07-26T22:11:41.901Z,97.41
2022-07-26T22:14:32.736Z,97.62
2022-07-26T22:17:08.637Z,98.08
2022-07-26T22:19:51.961Z,98.24
2022-07-26T22:22:33.655Z,97.82
2022-07-26T22:25:20.006Z,97.59
2022-07-26T22:28:02.077Z,98.08
2022-07-26T22:30:37.608Z,97.29
2022-07-26T22:33:12.416Z,97.21
2022-07-26T22:35:53.026Z,97.38
2022-07-26T22:38:36.556Z,97.28
2022-07-26T22:41:23.829Z,96.78
2022-07-26T22:44:07.396Z,96.16
2022-07-26T22:46:58.814Z,95.71
2022-07-26T22:49:32.169Z,95.33
2022-07-26T22:52:18.498Z,96.73
2022-07-26T22:54:53.815Z,96.53
2022-07-26T22:57:42.168Z,96.42
2022-07-26T23:00:30.094Z,96.40
2022-07-26T23:02:57.149Z,96.72
2022-07-26T23:05:47.479Z,97.30
2022-07-26T23:08:47.727Z,98.40
2022-07-26T23:11:32.861Z,98.02
2022-07-26T23:14:22.726Z,99.24
2022-07-26T23:17:08.977Z,99.65
2022-07-26T23:19:56.095Z,100.00
2022-07-26T23:22:43.387Z,99.40
2022-07-26T23:25:27.462Z,99.03
2022-07-26T23:28:08.586Z,99.43
2022-07-26T23:31:13.810Z,99.05
2022-07-26T23:33:57.017Z,99.65
2022-07-26T23:36:40.411Z,100.00
2022-07-26T23:39:17.102Z,100.00
2022-07-26T23:41:57.599Z,100.00
2022-07-26T23:44:52.617Z,100.00
2022-07-26T23:47:37.927Z,100.00
2022-07-26T23:50:08.091Z,100.00
2022-07-26T23:52:48.802Z,100.00
2022-07-26T23:55:35.809Z,100.00
2022-07-26T23:58:27.918Z,100.00
